Time;durP1;ratioP1;P1;durP2;ratioP2;P2;SDS_P1;SDS_P2;PMS_P1;PMS_P2;Temp;Humidity;BMP_temperature;BMP_pressure;BME280_temperature;BME280_humidity;BME280_pressure;Samples;Min_cycle;Max_cycle;Signal;HPM_P1;HPM_P2
2023/11/12 00:01:43;;;;;;;50.53;30.10;;;;;;;4.81;100.00;99428.94;10481742;28;20071;-77
2023/11/12 00:06:47;;;;;;;46.25;29.65;;;;;;;4.68;100.00;99430.78;10474830;28;20043;-77
2023/11/12 00:11:50;;;;;;;47.35;26.88;;;;;;;4.69;100.00;99435.16;10471784;28;20044;-77
2023/11/12 00:16:54;;;;;;;48.30;26.88;;;;;;;4.52;100.00;99430.19;10455517;28;20037;-77
2023/11/12 00:21:57;;;;;;;40.65;24.88;;;;;;;4.73;100.00;99427.81;10461094;28;20226;-77
2023/11/12 00:27:00;;;;;;;41.08;23.17;;;;;;;4.57;100.00;99439.53;10475431;28;20033;-78
2023/11/12 00:32:05;;;;;;;44.72;25.88;;;;;;;4.58;100.00;99433.25;10471530;28;20041;-78
2023/11/12 00:37:08;;;;;;;41.30;24.33;;;;;;;4.65;100.00;99427.50;10476860;28;20079;-78
2023/11/12 00:42:12;;;;;;;40.47;22.95;;;;;;;4.57;100.00;99442.19;10458486;28;20056;-78
2023/11/12 00:47:17;;;;;;;43.20;23.25;;;;;;;4.76;100.00;99422.25;10459412;28;20045;-78
2023/11/12 00:52:20;;;;;;;38.40;23.13;;;;;;;4.68;100.00;99430.78;10477544;28;20052;-78
2023/11/12 00:57:23;;;;;;;39.13;22.70;;;;;;;4.76;100.00;99432.91;10475164;28;20045;-77
2023/11/12 01:02:28;;;;;;;40.88;24.52;;;;;;;4.90;100.00;99422.09;10474457;28;20045;-76
2023/11/12 01:07:31;;;;;;;41.70;24.20;;;;;;;4.89;100.00;99419.56;10467732;28;20045;-77
2023/11/12 01:12:34;;;;;;;40.97;20.77;;;;;;;4.89;100.00;99415.09;10470541;28;20121;-77
2023/11/12 01:17:39;;;;;;;41.85;24.13;;;;;;;5.01;100.00;99414.22;10469151;28;20075;-77
2023/11/12 01:22:45;;;;;;;42.78;23.83;;;;;;;5.09;99.94;99415.47;10470224;28;20516;-78
2023/11/12 01:27:48;;;;;;;45.20;24.75;;;;;;;5.05;99.58;99415.69;10479567;28;20044;-78
2023/11/12 01:32:52;;;;;;;52.45;25.33;;;;;;;5.00;99.98;99417.84;10478165;28;20051;-77
2023/11/12 01:37:55;;;;;;;38.38;22.40;;;;;;;4.97;100.00;99418.03;10505026;28;20047;-78
2023/11/12 01:42:58;;;;;;;37.88;21.58;;;;;;;4.98;100.00;99418.88;10473533;28;20098;-78
2023/11/12 01:48:02;;;;;;;44.63;22.38;;;;;;;5.11;99.79;99418.88;10473320;28;20044;-78
2023/11/12 01:53:06;;;;;;;38.55;21.38;;;;;;;5.24;99.33;99409.88;10476093;28;20136;-78
2023/11/12 01:58:10;;;;;;;40.83;23.75;;;;;;;5.19;99.37;99400.53;10475292;28;20508;-78
2023/11/12 02:03:17;;;;;;;40.55;23.13;;;;;;;5.21;99.21;99386.13;10476827;28;20045;-78
2023/11/12 02:08:21;;;;;;;39.30;22.65;;;;;;;5.17;98.76;99389.13;10470454;28;20047;-78
2023/11/12 02:13:25;;;;;;;37.13;22.70;;;;;;;5.12;98.81;99381.47;10465173;28;20049;-78
2023/11/12 02:18:29;;;;;;;44.03;23.73;;;;;;;5.04;99.38;99397.16;10475251;28;20084;-78
2023/11/12 02:23:36;;;;;;;39.58;22.02;;;;;;;5.10;99.92;99395.88;10491863;28;20135;-78
2023/11/12 02:28:39;;;;;;;39.60;23.75;;;;;;;5.16;99.35;99385.63;10483868;28;20698;-77
2023/11/12 02:33:43;;;;;;;36.05;21.38;;;;;;;5.06;99.31;99396.09;10484843;28;20044;-77
2023/11/12 02:38:48;;;;;;;39.17;23.80;;;;;;;5.10;99.26;99377.22;10481498;28;20063;-78
2023/11/12 02:43:52;;;;;;;34.42;21.23;;;;;;;4.99;100.00;99381.56;10477840;28;20105;-77
2023/11/12 02:49:10;;;;;;;38.70;22.30;;;;;;;5.12;99.97;99389.47;10483635;28;20029;-78
2023/11/12 02:54:15;;;;;;;38.85;20.98;;;;;;;5.15;99.96;99397.22;10480289;28;20056;-78
2023/11/12 02:59:19;;;;;;;34.83;20.63;;;;;;;5.21;99.44;99388.81;10484687;28;20650;-78
2023/11/12 03:04:21;;;;;;;37.95;20.95;;;;;;;5.08;100.00;99395.16;10478766;28;20161;-78
2023/11/12 03:09:28;;;;;;;37.10;20.17;;;;;;;5.04;100.00;99390.03;10484139;28;20041;-78
2023/11/12 03:14:31;;;;;;;38.95;20.88;;;;;;;5.08;100.00;99392.50;10475213;28;20080;-78
2023/11/12 03:19:35;;;;;;;39.03;21.27;;;;;;;5.03;100.00;99399.00;10478201;28;20049;-76
2023/11/12 03:24:39;;;;;;;39.50;20.40;;;;;;;5.03;100.00;99385.69;10479217;28;20054;-78
2023/11/12 03:29:42;;;;;;;36.97;21.08;;;;;;;5.05;100.00;99378.44;10478091;28;20056;-78
2023/11/12 03:34:45;;;;;;;36.55;20.17;;;;;;;5.06;100.00;99388.09;10475705;28;20365;-76
2023/11/12 03:39:50;;;;;;;33.60;16.92;;;;;;;4.90;100.00;99392.81;10484388;28;20518;-75
2023/11/12 03:44:52;;;;;;;38.03;21.88;;;;;;;5.13;100.00;99390.31;10471708;28;20618;-78
2023/11/12 03:49:55;;;;;;;34.97;19.73;;;;;;;4.97;100.00;99395.91;10490368;28;20040;-77
2023/11/12 03:54:59;;;;;;;37.65;20.92;;;;;;;4.88;100.00;99393.91;10507627;28;20063;-77
2023/11/12 04:00:03;;;;;;;33.83;20.88;;;;;;;5.03;100.00;99391.00;10479006;28;20060;-78
2023/11/12 04:05:13;;;;;;;38.85;21.85;;;;;;;4.94;100.00;99396.13;10480749;28;20048;-77
2023/11/12 04:10:18;;;;;;;38.80;22.15;;;;;;;5.12;100.00;99396.59;10468859;28;20495;-78
2023/11/12 04:15:21;;;;;;;40.05;20.95;;;;;;;5.16;100.00;99406.94;10475787;28;20724;-78
2023/11/12 04:20:28;;;;;;;47.33;22.73;;;;;;;5.23;100.00;99397.50;10483613;28;20045;-75
2023/11/12 04:25:33;;;;;;;42.00;21.60;;;;;;;5.11;100.00;99398.44;10481711;28;20056;-78
2023/11/12 04:30:36;;;;;;;38.88;20.75;;;;;;;5.20;100.00;99392.41;10478294;28;20040;-78
2023/11/12 04:35:39;;;;;;;36.38;19.92;;;;;;;5.18;100.00;99398.81;10469483;28;20045;-76
2023/11/12 04:40:43;;;;;;;35.97;20.65;;;;;;;5.08;100.00;99401.31;10475341;28;20082;-78
2023/11/12 04:45:46;;;;;;;42.58;21.48;;;;;;;5.21;100.00;99406.56;10476841;28;20045;-78
2023/11/12 04:50:49;;;;;;;36.33;19.35;;;;;;;4.94;100.00;99402.31;10477052;28;20056;-78
2023/11/12 04:55:53;;;;;;;36.45;20.67;;;;;;;5.10;100.00;99395.88;10479599;28;20047;-78
2023/11/12 05:00:56;;;;;;;39.38;20.45;;;;;;;5.10;100.00;99398.53;10472315;28;20126;-78
2023/11/12 05:05:59;;;;;;;42.65;23.60;;;;;;;5.09;100.00;99388.84;10481178;28;20045;-78
2023/11/12 05:11:03;;;;;;;42.17;21.85;;;;;;;5.16;100.00;99384.78;10471839;28;20546;-78
2023/11/12 05:16:07;;;;;;;40.97;19.25;;;;;;;4.85;100.00;99394.97;10489697;28;20048;-77
2023/11/12 05:21:10;;;;;;;41.85;22.10;;;;;;;4.96;100.00;99400.34;10489489;28;20053;-77
2023/11/12 05:26:15;;;;;;;40.88;22.40;;;;;;;4.97;100.00;99402.06;10481165;28;20052;-78
2023/11/12 05:31:18;;;;;;;32.03;17.90;;;;;;;5.02;100.00;99401.78;10491775;28;20049;-78
2023/11/12 05:36:21;;;;;;;36.70;20.40;;;;;;;4.83;100.00;99405.75;10491448;28;20139;-78
2023/11/12 05:41:26;;;;;;;40.38;21.17;;;;;;;4.99;100.00;99402.84;10481174;28;20029;-77
2023/11/12 05:46:29;;;;;;;35.03;20.55;;;;;;;4.88;100.00;99410.72;10486281;28;20521;-77
2023/11/12 05:51:32;;;;;;;33.88;18.98;;;;;;;5.01;100.00;99418.69;10485004;28;20162;-77
2023/11/12 05:56:37;;;;;;;37.22;20.33;;;;;;;4.90;100.00;99416.78;10485323;28;20043;-77
2023/11/12 06:01:40;;;;;;;41.97;20.08;;;;;;;4.87;100.00;99421.47;10494616;28;20040;-78
2023/11/12 06:06:43;;;;;;;39.53;21.00;;;;;;;4.96;100.00;99420.81;10484073;28;20043;-77
2023/11/12 06:11:49;;;;;;;37.42;18.98;;;;;;;4.89;100.00;99420.41;10481857;28;20064;-78
2023/11/12 06:16:52;;;;;;;33.60;18.13;;;;;;;4.94;100.00;99417.44;10485286;28;20120;-77
2023/11/12 06:21:55;;;;;;;33.90;20.17;;;;;;;4.85;100.00;99426.91;10485536;28;20039;-77
2023/11/12 06:27:00;;;;;;;34.80;17.98;;;;;;;4.82;100.00;99432.44;10477300;28;20075;-77
2023/11/12 06:32:03;;;;;;;33.47;17.70;;;;;;;5.05;100.00;99428.16;10480941;28;20048;-77
2023/11/12 06:37:06;;;;;;;33.20;18.45;;;;;;;4.96;100.00;99437.63;10474353;28;20040;-77
2023/11/12 06:42:10;;;;;;;36.17;17.48;;;;;;;4.96;100.00;99442.09;10475478;28;20060;-77
2023/11/12 06:47:15;;;;;;;33.75;18.27;;;;;;;5.05;100.00;99433.50;10483746;28;20044;-77
2023/11/12 06:52:18;;;;;;;35.38;17.42;;;;;;;4.91;100.00;99442.44;10484100;28;20045;-77
2023/11/12 06:57:22;;;;;;;31.98;16.83;;;;;;;5.02;100.00;99447.03;10480860;28;20128;-77
2023/11/12 07:02:25;;;;;;;31.30;16.65;;;;;;;5.08;100.00;99461.69;10472133;28;20029;-77
2023/11/12 07:07:28;;;;;;;38.25;16.92;;;;;;;5.06;100.00;99464.47;10469467;28;20705;-77
2023/11/12 07:12:32;;;;;;;30.77;17.92;;;;;;;5.08;100.00;99459.03;10483540;28;20045;-77
2023/11/12 07:17:36;;;;;;;29.95;15.75;;;;;;;4.86;100.00;99467.69;10479300;28;20043;-77
2023/11/12 07:22:39;;;;;;;32.53;17.90;;;;;;;4.75;100.00;99476.44;10482541;28;20048;-77
2023/11/12 07:27:44;;;;;;;31.15;17.00;;;;;;;5.16;100.00;99476.16;10472504;28;20102;-77
2023/11/12 07:32:47;;;;;;;28.00;16.02;;;;;;;5.06;99.72;99483.94;10466513;28;20049;-77
2023/11/12 07:37:50;;;;;;;31.05;16.33;;;;;;;5.30;99.18;99493.78;10471241;28;20533;-77
2023/11/12 07:42:55;;;;;;;34.05;16.85;;;;;;;5.31;98.61;99495.47;10472512;28;20040;-77
2023/11/12 07:47:58;;;;;;;23.00;12.48;;;;;;;4.93;100.00;99506.19;10477185;28;20400;-77
2023/11/12 07:53:03;;;;;;;29.35;15.65;;;;;;;5.62;97.42;99503.84;10474073;28;20137;-77
2023/11/12 07:58:07;;;;;;;23.60;14.65;;;;;;;5.18;96.90;99515.94;10478631;28;20442;-78
2023/11/12 08:03:10;;;;;;;27.95;16.50;;;;;;;5.37;96.98;99510.97;10470689;28;20044;-77
2023/11/12 08:08:13;;;;;;;24.75;12.93;;;;;;;5.40;96.00;99513.44;10511349;28;20041;-77
2023/11/12 08:13:18;;;;;;;24.27;14.40;;;;;;;5.95;94.69;99508.47;10495808;28;20420;-77
2023/11/12 08:18:21;;;;;;;19.45;12.05;;;;;;;6.26;91.06;99520.31;10489335;28;20041;-77
2023/11/12 08:23:24;;;;;;;25.08;11.60;;;;;;;6.03;90.86;99514.06;10477154;28;20052;-77
2023/11/12 08:28:28;;;;;;;26.67;14.23;;;;;;;5.89;92.51;99520.44;10465939;28;20655;-77
2023/11/12 08:33:33;;;;;;;23.50;12.98;;;;;;;6.35;90.90;99516.94;10458958;28;20704;-77
2023/11/12 08:38:36;;;;;;;24.50;12.93;;;;;;;5.97;90.30;99505.69;10465786;28;20040;-77
2023/11/12 08:43:44;;;;;;;22.92;13.77;;;;;;;6.03;91.03;99513.22;10476261;28;20068;-77
2023/11/12 08:48:47;;;;;;;19.27;10.73;;;;;;;6.15;88.94;99523.81;10488981;28;20044;-77
2023/11/12 08:53:50;;;;;;;16.15;11.32;;;;;;;5.97;91.53;99529.69;10467605;28;20140;-77
2023/11/12 08:58:54;;;;;;;21.40;12.18;;;;;;;5.84;93.23;99530.63;10471040;28;20040;-77
2023/11/12 09:03:57;;;;;;;21.88;13.02;;;;;;;5.72;93.10;99540.34;10471740;28;20051;-77
2023/11/12 09:09:04;;;;;;;20.67;10.30;;;;;;;5.90;91.84;99546.16;10472980;28;20056;-77
2023/11/12 09:14:11;;;;;;;25.25;14.55;;;;;;;5.99;92.89;99555.25;10478767;28;20048;-77
2023/11/12 09:19:14;;;;;;;24.27;13.20;;;;;;;6.31;90.91;99550.16;10473989;28;20043;-77
2023/11/12 09:24:16;;;;;;;19.25;12.27;;;;;;;6.53;89.05;99564.53;10474718;28;20036;-77
2023/11/12 09:29:21;;;;;;;21.42;13.13;;;;;;;6.79;87.51;99566.00;10464161;28;20048;-76
2023/11/12 09:34:24;;;;;;;18.55;11.27;;;;;;;6.49;88.59;99563.88;10467326;28;20040;-77
2023/11/12 09:39:27;;;;;;;18.13;11.30;;;;;;;7.27;84.72;99560.44;10479576;28;20056;-77
2023/11/12 09:44:33;;;;;;;17.50;9.13;;;;;;;6.81;85.02;99574.75;10480236;28;20076;-78
2023/11/12 09:49:36;;;;;;;14.75;9.63;;;;;;;6.68;84.83;99571.31;10476222;28;20099;-78
2023/11/12 09:54:40;;;;;;;17.95;9.27;;;;;;;6.21;88.32;99572.31;10472949;28;20060;-77
2023/11/12 09:59:44;;;;;;;17.92;9.57;;;;;;;6.47;87.58;99562.31;10480634;28;20696;-77
2023/11/12 10:04:57;;;;;;;16.48;8.57;;;;;;;6.52;86.59;99560.13;10474452;28;20041;-78
2023/11/12 10:10:21;;;;;;;17.83;10.07;;;;;;;6.73;85.93;99561.13;10480487;28;20040;-78
2023/11/12 10:15:27;;;;;;;16.25;9.65;;;;;;;6.71;85.25;99560.41;10477566;28;20052;-77
2023/11/12 10:20:31;;;;;;;17.30;9.45;;;;;;;6.48;86.00;99566.69;10482234;28;20041;-78
2023/11/12 10:25:39;;;;;;;13.15;9.75;;;;;;;6.78;86.20;99574.97;10465964;28;20140;-78
2023/11/12 10:30:46;;;;;;;14.38;10.00;;;;;;;7.00;84.72;99554.63;10469485;28;20076;-77
2023/11/12 10:35:49;;;;;;;13.48;10.00;;;;;;;6.52;87.82;99560.13;10491387;28;20037;-77
2023/11/12 10:41:01;;;;;;;14.35;9.65;;;;;;;6.98;84.27;99562.75;10511050;28;20063;-77
2023/11/12 10:46:07;;;;;;;14.82;11.05;;;;;;;7.12;84.28;99559.00;10492100;28;20563;-78
2023/11/12 10:51:11;;;;;;;13.75;9.25;;;;;;;7.55;81.53;99558.22;10489841;28;20044;-78
2023/11/12 10:56:16;;;;;;;16.33;9.82;;;;;;;7.16;82.86;99549.78;10482188;28;20048;-77
2023/11/12 11:01:21;;;;;;;15.00;9.73;;;;;;;7.52;81.91;99550.44;10488211;28;20041;-78
2023/11/12 11:06:26;;;;;;;15.02;9.38;;;;;;;7.17;82.93;99546.13;10491340;28;20094;-78
2023/11/12 11:11:30;;;;;;;15.18;10.52;;;;;;;7.90;80.83;99536.59;10489551;28;20095;-78
2023/11/12 11:16:47;;;;;;;10.35;9.25;;;;;;;7.77;82.39;99530.56;10491876;28;20044;-78
2023/11/12 11:22:27;;;;;;;13.18;8.60;;;;;;;7.72;80.89;99532.75;10475455;28;20041;-78
2023/11/12 11:27:31;;;;;;;15.25;8.20;;;;;;;7.99;79.79;99526.94;10467689;28;20123;-77
2023/11/12 11:32:36;;;;;;;11.30;8.63;;;;;;;8.10;78.93;99529.56;10485332;28;20048;-78
2023/11/12 11:38:11;;;;;;;10.95;7.47;;;;;;;8.80;76.96;99529.88;10481677;28;20048;-77
2023/11/12 11:43:31;;;;;;;10.23;7.05;;;;;;;10.10;69.78;99518.19;10487633;28;20116;-78
2023/11/12 11:48:36;;;;;;;10.35;6.50;;;;;;;8.80;73.07;99535.22;10511502;28;20565;-77
2023/11/12 11:53:39;;;;;;;9.52;6.45;;;;;;;8.50;75.04;99528.91;10499846;28;20064;-78
2023/11/12 11:58:48;;;;;;;9.40;6.07;;;;;;;7.91;75.69;99524.06;10490497;28;20526;-78
2023/11/12 12:04:02;;;;;;;11.40;7.65;;;;;;;7.89;78.00;99523.34;10483727;28;20040;-78
2023/11/12 12:09:08;;;;;;;9.45;6.55;;;;;;;8.61;75.62;99522.59;10489395;28;20056;-78
2023/11/12 12:14:12;;;;;;;7.78;6.60;;;;;;;8.71;73.31;99526.16;10489300;28;20048;-78
2023/11/12 12:19:17;;;;;;;9.68;6.15;;;;;;;8.32;75.13;99533.09;10481004;28;20036;-78
2023/11/12 12:24:22;;;;;;;9.98;5.20;;;;;;;8.44;74.03;99518.66;10479328;28;20045;-78
2023/11/12 12:29:26;;;;;;;7.80;5.70;;;;;;;8.18;73.56;99529.78;10478459;28;20428;-78
2023/11/12 12:34:41;;;;;;;8.57;4.90;;;;;;;9.88;66.62;99522.00;10487597;28;20416;-78
2023/11/12 12:39:52;;;;;;;7.50;5.05;;;;;;;9.32;67.65;99521.75;10484361;28;20047;-78
2023/11/12 12:44:59;;;;;;;7.68;4.63;;;;;;;8.25;72.52;99531.91;10480919;28;20043;-78
2023/11/12 12:50:15;;;;;;;7.93;3.25;;;;;;;8.00;72.84;99533.97;10479456;28;20052;-77
2023/11/12 12:55:20;;;;;;;8.38;4.35;;;;;;;7.93;72.74;99527.47;10488263;28;20570;-78
2023/11/12 13:00:24;;;;;;;5.15;3.58;;;;;;;8.29;71.59;99536.03;10483474;28;20049;-78
2023/11/12 13:05:29;;;;;;;5.15;3.42;;;;;;;8.56;70.47;99525.69;10481343;28;20051;-78
2023/11/12 13:10:34;;;;;;;4.25;3.50;;;;;;;8.60;69.85;99531.63;10479782;28;20040;-78
2023/11/12 13:15:37;;;;;;;7.82;3.30;;;;;;;8.50;68.56;99536.06;10496740;28;20049;-77
2023/11/12 13:20:42;;;;;;;3.88;2.70;;;;;;;8.44;69.44;99539.22;10482556;28;20422;-78
2023/11/12 13:25:46;;;;;;;6.43;2.78;;;;;;;8.95;66.27;99551.81;10482051;28;20101;-77
2023/11/12 13:30:49;;;;;;;4.55;3.15;;;;;;;8.42;67.03;99547.41;10476728;28;20127;-78
2023/11/12 13:35:59;;;;;;;4.10;2.58;;;;;;;8.25;68.25;99566.69;10481160;28;20045;-78
2023/11/12 13:41:02;;;;;;;4.20;2.70;;;;;;;8.31;68.34;99568.84;10487209;28;20040;-78
2023/11/12 13:46:05;;;;;;;4.00;3.00;;;;;;;8.55;67.34;99571.31;10473491;28;20033;-78
2023/11/12 13:51:11;;;;;;;7.10;3.10;;;;;;;8.35;68.07;99583.69;10474566;28;20126;-79
2023/11/12 13:56:14;;;;;;;4.20;2.67;;;;;;;8.45;68.86;99584.63;10483497;28;20055;-77
2023/11/12 14:01:21;;;;;;;4.03;2.55;;;;;;;8.66;67.17;99581.94;10482214;28;20036;-78
2023/11/12 14:06:26;;;;;;;5.70;2.58;;;;;;;8.79;66.83;99581.75;10485552;28;20462;-78
2023/11/12 14:11:29;;;;;;;9.15;2.92;;;;;;;8.64;66.69;99581.25;10480504;28;20047;-78
2023/11/12 14:16:36;;;;;;;3.10;2.47;;;;;;;8.67;66.37;99582.81;10480222;28;20049;-78
2023/11/12 14:21:41;;;;;;;2.85;2.50;;;;;;;9.58;62.20;99581.09;10474841;28;20045;-78
2023/11/12 14:26:46;;;;;;;2.90;2.10;;;;;;;9.97;60.56;99581.16;10481065;28;20426;-78
2023/11/12 14:31:48;;;;;;;2.83;2.13;;;;;;;9.55;61.24;99589.41;10488088;28;20067;-78
2023/11/12 14:36:53;;;;;;;5.82;2.35;;;;;;;9.31;61.97;99595.94;10485419;28;20045;-78
2023/11/12 14:41:56;;;;;;;2.20;1.80;;;;;;;9.56;63.17;99612.53;10487130;28;20047;-78
2023/11/12 14:47:00;;;;;;;6.10;2.88;;;;;;;8.86;64.58;99607.03;10470949;28;20045;-78
2023/11/12 14:52:05;;;;;;;3.70;2.70;;;;;;;8.61;65.58;99610.94;10484814;28;20079;-78
2023/11/12 14:57:08;;;;;;;6.07;2.78;;;;;;;8.32;67.35;99610.69;10488909;28;20075;-78
2023/11/12 15:02:11;;;;;;;5.93;3.00;;;;;;;8.38;68.17;99612.84;10494213;28;20041;-78
2023/11/12 15:07:17;;;;;;;5.03;3.05;;;;;;;8.25;67.99;99606.84;10515578;28;20032;-77
2023/11/12 15:12:19;;;;;;;5.20;3.13;;;;;;;8.14;69.01;99613.91;10484986;28;20411;-78
2023/11/12 15:17:25;;;;;;;3.28;2.97;;;;;;;8.00;69.82;99613.38;10480340;28;20049;-78
2023/11/12 15:22:30;;;;;;;9.40;3.92;;;;;;;7.98;70.43;99616.19;10483063;28;20043;-78
2023/11/12 15:27:33;;;;;;;4.55;3.75;;;;;;;7.95;70.88;99617.28;10482210;28;20032;-76
2023/11/12 15:32:36;;;;;;;9.05;3.70;;;;;;;7.84;71.45;99616.44;10532409;28;20037;-78
2023/11/12 15:37:41;;;;;;;5.85;3.47;;;;;;;7.79;72.36;99607.94;10509105;28;20500;-79
2023/11/12 15:42:45;;;;;;;6.82;4.13;;;;;;;7.79;72.53;99621.31;10476307;28;20485;-77
2023/11/12 15:47:48;;;;;;;5.40;3.33;;;;;;;7.70;73.20;99618.44;10481665;28;20065;-78
2023/11/12 15:52:52;;;;;;;7.40;4.63;;;;;;;7.66;73.75;99621.50;10493417;28;20164;-78
2023/11/12 15:57:55;;;;;;;6.55;4.07;;;;;;;7.54;74.32;99617.97;10530164;28;20218;-77
2023/11/12 16:02:59;;;;;;;5.38;4.15;;;;;;;7.52;74.25;99625.28;10492632;28;20074;-79
2023/11/12 16:08:16;;;;;;;7.30;4.40;;;;;;;7.44;74.03;99619.69;10482789;28;20048;-78
2023/11/12 16:13:19;;;;;;;7.97;4.45;;;;;;;7.40;74.07;99628.91;10466858;28;20051;-78
2023/11/12 16:18:21;;;;;;;5.32;4.35;;;;;;;7.32;74.50;99623.34;10471216;28;20047;-77
2023/11/12 16:23:26;;;;;;;7.03;4.15;;;;;;;7.25;74.86;99623.81;10483048;28;20033;-78
2023/11/12 16:28:29;;;;;;;10.27;5.03;;;;;;;7.22;74.72;99629.41;10486598;28;20398;-78
2023/11/12 16:33:32;;;;;;;11.18;5.45;;;;;;;7.16;75.20;99635.25;10480727;28;20056;-78
2023/11/12 16:38:38;;;;;;;8.05;5.38;;;;;;;7.15;74.97;99640.69;10470886;28;20043;-78
2023/11/12 16:43:40;;;;;;;9.23;6.10;;;;;;;7.08;75.26;99645.69;10469674;28;20033;-77
2023/11/12 16:48:43;;;;;;;7.35;5.60;;;;;;;7.00;75.60;99648.94;10472025;28;20041;-78
2023/11/12 16:53:47;;;;;;;10.10;4.85;;;;;;;6.93;75.44;99645.03;10479157;28;20051;-78
2023/11/12 16:58:50;;;;;;;7.75;4.75;;;;;;;6.87;75.56;99648.19;10482492;28;20781;-78
2023/11/12 17:03:56;;;;;;;5.25;4.75;;;;;;;6.76;75.96;99664.16;10476756;28;20468;-77
2023/11/12 17:09:00;;;;;;;7.72;5.05;;;;;;;6.69;75.53;99666.44;10485829;28;20041;-77
2023/11/12 17:14:03;;;;;;;8.65;5.00;;;;;;;6.63;75.64;99673.06;10473602;28;20468;-77
2023/11/12 17:19:06;;;;;;;11.90;5.32;;;;;;;6.68;75.50;99675.41;10476174;28;20050;-77
2023/11/12 17:24:11;;;;;;;6.30;5.38;;;;;;;6.66;75.09;99677.34;10486507;28;20048;-77
2023/11/12 17:29:14;;;;;;;8.05;5.75;;;;;;;6.54;75.47;99683.63;10482459;28;20048;-78
2023/11/12 17:34:18;;;;;;;9.15;7.10;;;;;;;6.53;76.02;99687.25;10480318;28;20040;-78
2023/11/12 17:39:23;;;;;;;10.93;7.93;;;;;;;6.45;76.09;99690.50;10489011;28;20377;-77
2023/11/12 17:44:28;;;;;;;13.07;6.20;;;;;;;6.48;76.09;99690.25;10474739;28;20048;-77
2023/11/12 17:49:31;;;;;;;10.48;5.40;;;;;;;6.45;75.88;99695.00;10478239;28;20041;-76
2023/11/12 17:54:37;;;;;;;8.00;6.43;;;;;;;6.51;75.27;99699.84;10484044;28;20047;-77
2023/11/12 17:59:40;;;;;;;13.18;6.38;;;;;;;6.35;75.64;99711.66;10478800;28;20062;-77
2023/11/12 18:04:43;;;;;;;10.52;7.00;;;;;;;6.27;75.91;99708.72;10479097;28;20052;-76
2023/11/12 18:09:47;;;;;;;8.98;6.18;;;;;;;6.11;76.37;99694.81;10469494;28;20135;-77
2023/11/12 18:14:50;;;;;;;10.82;6.25;;;;;;;5.97;76.71;99703.81;10471170;28;20492;-78
2023/11/12 18:19:55;;;;;;;34.97;16.80;;;;;;;5.94;76.80;99699.53;10478840;28;20075;-78
2023/11/12 18:25:00;;;;;;;9.07;4.95;;;;;;;5.85;76.89;99710.88;10481037;28;20029;-78
2023/11/12 18:30:06;;;;;;;9.18;6.68;;;;;;;5.78;77.11;99706.94;10488417;28;20114;-78
2023/11/12 18:35:09;;;;;;;7.38;4.82;;;;;;;5.66;78.11;99715.84;10495531;28;20462;-78
2023/11/12 18:40:15;;;;;;;5.88;4.50;;;;;;;5.60;78.15;99722.44;10483211;28;20426;-77
2023/11/12 18:45:19;;;;;;;6.75;4.22;;;;;;;5.48;78.40;99732.13;10476901;28;20172;-77
2023/11/12 18:50:22;;;;;;;13.80;5.25;;;;;;;5.62;77.98;99725.88;10479175;28;20063;-78
2023/11/12 18:55:26;;;;;;;7.60;4.80;;;;;;;5.60;77.88;99743.75;10482753;28;20037;-77
2023/11/12 19:00:29;;;;;;;9.20;4.88;;;;;;;5.61;77.89;99740.13;10483754;28;20048;-77
2023/11/12 19:05:32;;;;;;;11.32;6.05;;;;;;;5.49;78.07;99739.19;10498435;28;20475;-77
2023/11/12 19:10:37;;;;;;;17.27;6.00;;;;;;;5.53;77.93;99731.81;10505715;28;20045;-77
2023/11/12 19:15:40;;;;;;;10.25;5.47;;;;;;;5.44;78.33;99741.31;10522342;28;20035;-76
2023/11/12 19:20:43;;;;;;;8.30;5.82;;;;;;;5.32;78.99;99749.28;10520328;28;20040;-77
2023/11/12 19:25:47;;;;;;;7.22;5.18;;;;;;;5.16;79.57;99766.34;10505961;28;20037;-79
2023/11/12 19:30:50;;;;;;;8.48;5.47;;;;;;;5.15;79.78;99772.63;10500985;28;20053;-80
2023/11/12 19:35:53;;;;;;;8.77;5.45;;;;;;;4.98;80.84;99783.53;10503267;28;20120;-79
2023/11/12 19:40:58;;;;;;;6.18;5.13;;;;;;;4.97;80.47;99787.16;10500063;28;20502;-79
2023/11/12 19:46:01;;;;;;;8.68;5.45;;;;;;;5.10;79.98;99800.50;10494281;28;20040;-79
2023/11/12 19:51:06;;;;;;;8.10;5.60;;;;;;;5.06;79.87;99806.03;10496956;28;20407;-80
2023/11/12 19:56:10;;;;;;;10.40;5.80;;;;;;;5.10;79.77;99811.16;10490762;28;20111;-79
2023/11/12 20:01:13;;;;;;;7.20;5.57;;;;;;;5.03;79.73;99803.59;10493050;28;20040;-79
2023/11/12 20:06:18;;;;;;;10.13;6.15;;;;;;;5.04;79.47;99797.28;10488729;28;20040;-78
2023/11/12 20:11:22;;;;;;;8.85;5.68;;;;;;;5.00;79.33;99798.47;10489468;28;20140;-80
2023/11/12 20:16:25;;;;;;;11.07;5.75;;;;;;;4.99;79.43;99778.16;10489343;28;20048;-80
2023/11/12 20:21:29;;;;;;;8.90;5.55;;;;;;;4.98;79.32;99757.75;10488354;28;20040;-79
2023/11/12 20:26:44;;;;;;;8.20;5.93;;;;;;;5.01;79.49;99748.75;10491384;28;20056;-78
2023/11/12 20:31:46;;;;;;;7.32;4.72;;;;;;;4.98;79.41;99749.78;10479614;28;20045;-80
2023/11/12 20:36:50;;;;;;;7.78;5.43;;;;;;;5.01;79.42;99759.38;10486842;28;20033;-80
2023/11/12 20:41:56;;;;;;;12.20;5.72;;;;;;;5.01;79.41;99772.69;10484942;28;20055;-79
2023/11/12 20:46:59;;;;;;;8.68;6.28;;;;;;;4.99;79.71;99772.81;10487123;28;20060;-78
2023/11/12 20:52:02;;;;;;;8.65;6.15;;;;;;;5.00;79.82;99781.66;10491712;28;20514;-80
2023/11/12 20:57:07;;;;;;;7.30;5.97;;;;;;;4.91;80.13;99793.75;10482839;28;20123;-80
2023/11/12 21:02:10;;;;;;;9.45;6.07;;;;;;;4.83;80.37;99812.03;10489496;28;20041;-78
2023/11/12 21:07:26;;;;;;;10.18;6.32;;;;;;;4.72;80.67;99825.19;10502124;28;20040;-76
2023/11/12 21:12:30;;;;;;;11.75;5.70;;;;;;;4.59;81.36;99836.63;10504722;28;20056;-79
2023/11/12 21:17:34;;;;;;;10.48;6.07;;;;;;;4.60;81.69;99840.97;10496967;28;20110;-79
2023/11/12 21:22:37;;;;;;;9.45;6.47;;;;;;;4.63;81.60;99845.25;10494108;28;20652;-79
2023/11/12 21:27:43;;;;;;;8.15;6.32;;;;;;;4.66;81.50;99836.22;10497573;28;20384;-80
2023/11/12 21:32:46;;;;;;;8.27;5.72;;;;;;;4.69;81.43;99830.69;10485767;28;20040;-80
2023/11/12 21:37:49;;;;;;;25.90;17.80;;;;;;;4.64;81.51;99830.16;10475733;28;20436;-77
2023/11/12 21:42:54;;;;;;;9.57;7.45;;;;;;;4.53;81.80;99817.56;10485826;28;20041;-80
2023/11/12 21:47:57;;;;;;;10.60;8.05;;;;;;;4.48;81.98;99817.00;10486464;28;20101;-80
2023/11/12 21:53:00;;;;;;;9.95;6.40;;;;;;;4.28;81.78;99811.16;10510874;28;20041;-76
2023/11/12 21:58:04;;;;;;;9.73;7.07;;;;;;;4.06;82.96;99802.81;10484411;28;20072;-79
2023/11/12 22:03:07;;;;;;;15.98;8.00;;;;;;;3.88;84.11;99810.16;10478910;28;20045;-80
2023/11/12 22:08:10;;;;;;;13.25;7.22;;;;;;;3.77;85.14;99804.66;10489434;28;20048;-77
2023/11/12 22:13:15;;;;;;;12.57;8.40;;;;;;;3.78;85.77;99812.50;10482975;28;20037;-79
2023/11/12 22:18:23;;;;;;;11.55;8.55;;;;;;;3.64;86.16;99805.41;10489955;28;20045;-78
2023/11/12 22:23:26;;;;;;;13.73;8.77;;;;;;;3.59;86.46;99802.16;10484647;28;20043;-78
2023/11/12 22:28:31;;;;;;;16.77;8.57;;;;;;;3.56;86.69;99794.38;10487190;28;20045;-80
2023/11/12 22:33:34;;;;;;;11.05;8.30;;;;;;;3.53;86.89;99821.13;10485979;28;20076;-77
2023/11/12 22:38:37;;;;;;;11.98;8.30;;;;;;;3.53;87.14;99828.25;10479803;28;20082;-79
2023/11/12 22:43:42;;;;;;;79.95;34.83;;;;;;;3.56;87.27;99841.34;10493743;28;20519;-79
2023/11/12 22:48:44;;;;;;;25.85;14.57;;;;;;;3.59;87.24;99857.09;10489883;28;20040;-80
2023/11/12 22:53:49;;;;;;;14.95;7.97;;;;;;;3.57;86.99;99875.78;10491475;28;20041;-79
2023/11/12 22:58:53;;;;;;;13.55;10.15;;;;;;;3.54;87.19;99857.38;10512242;28;20052;-78
2023/11/12 23:03:56;;;;;;;12.80;7.85;;;;;;;3.52;87.10;99863.75;10493254;28;20060;-80
2023/11/12 23:09:06;;;;;;;10.98;8.45;;;;;;;3.37;87.51;99865.50;10495121;28;20044;-79
2023/11/12 23:14:10;;;;;;;9.63;7.75;;;;;;;3.33;87.66;99866.63;10487793;28;20048;-78
2023/11/12 23:19:13;;;;;;;12.13;8.18;;;;;;;3.31;87.63;99853.44;10489603;28;20052;-77
2023/11/12 23:24:17;;;;;;;12.75;8.18;;;;;;;3.28;87.43;99881.00;10485546;28;20545;-77
2023/11/12 23:29:21;;;;;;;9.30;7.20;;;;;;;3.30;87.59;99880.09;10477310;28;20090;-79